createdAt,value
2017-04-23T00:00:02.747Z,0
2017-04-23T00:01:13.775Z,0
2017-04-23T00:02:24.800Z,0
2017-04-23T00:03:35.815Z,0
2017-04-23T00:04:46.831Z,0
2017-04-23T00:05:57.907Z,0
2017-04-23T00:07:08.927Z,0
2017-04-23T00:08:19.951Z,0
2017-04-23T00:09:31.163Z,0
2017-04-23T00:10:42.389Z,0
2017-04-23T00:11:53.424Z,0
2017-04-23T00:13:04.472Z,0
2017-04-23T00:14:15.496Z,0
2017-04-23T00:15:26.524Z,0
2017-04-23T00:16:37.799Z,0
2017-04-23T00:17:49.035Z,0
2017-04-23T00:19:00.067Z,0
2017-04-23T00:20:11.092Z,0
2017-04-23T00:21:22.315Z,0
2017-04-23T00:22:33.346Z,0
2017-04-23T00:23:44.585Z,0
2017-04-23T00:24:55.615Z,0
2017-04-23T00:26:06.838Z,0
2017-04-23T00:27:17.849Z,0
2017-04-23T00:28:28.866Z,0
2017-04-23T00:29:39.878Z,0
2017-04-23T00:30:50.908Z,0
2017-04-23T00:32:02.144Z,0
2017-04-23T00:33:13.173Z,0
2017-04-23T00:34:24.198Z,0
2017-04-23T00:35:35.217Z,0
2017-04-23T00:36:46.263Z,0
2017-04-23T00:37:57.527Z,0
2017-04-23T00:39:08.565Z,0
2017-04-23T00:40:19.779Z,0
2017-04-23T00:41:30.828Z,0
2017-04-23T00:42:41.854Z,0
2017-04-23T00:43:52.870Z,0
2017-04-23T00:45:03.882Z,0
2017-04-23T00:46:14.898Z,0
2017-04-23T00:47:25.928Z,0
2017-04-23T00:48:37.210Z,0
2017-04-23T00:49:48.239Z,0
2017-04-23T00:50:59.269Z,0
2017-04-23T00:52:10.287Z,0
2017-04-23T00:53:21.311Z,0
2017-04-23T00:54:32.549Z,0
2017-04-23T00:55:43.573Z,0
2017-04-23T00:56:54.790Z,0
2017-04-23T00:58:05.807Z,0
2017-04-23T00:59:16.877Z,0
2017-04-23T01:00:27.910Z,0
2017-04-23T01:01:38.932Z,0
2017-04-23T01:02:49.947Z,0
2017-04-23T01:04:00.976Z,0
2017-04-23T01:05:12.251Z,0
2017-04-23T01:06:23.272Z,0
2017-04-23T01:07:34.298Z,0
2017-04-23T01:08:45.327Z,0
2017-04-23T01:09:56.363Z,0
2017-04-23T01:11:07.395Z,0
2017-04-23T01:12:18.423Z,0
2017-04-23T01:13:29.654Z,0
2017-04-23T01:14:40.869Z,0
2017-04-23T01:15:52.299Z,0
2017-04-23T01:17:03.318Z,0
2017-04-23T01:18:14.531Z,0
2017-04-23T01:19:25.573Z,0
2017-04-23T01:20:36.599Z,0
2017-04-23T01:21:47.666Z,0
2017-04-23T01:22:58.690Z,0
2017-04-23T01:24:09.935Z,0
2017-04-23T01:25:20.991Z,0
2017-04-23T01:26:32.017Z,0
2017-04-23T01:27:43.034Z,0
2017-04-23T01:28:54.054Z,0
2017-04-23T01:30:05.089Z,0
2017-04-23T01:31:16.110Z,0
2017-04-23T01:32:27.188Z,0
2017-04-23T01:33:38.212Z,0
2017-04-23T01:34:49.238Z,0
2017-04-23T01:36:00.257Z,0
2017-04-23T01:37:11.283Z,0
2017-04-23T01:38:22.309Z,0
2017-04-23T01:39:33.355Z,0
2017-04-23T01:40:44.575Z,0
2017-04-23T01:41:55.599Z,0
2017-04-23T01:43:06.674Z,0
2017-04-23T01:44:17.896Z,0
2017-04-23T01:45:28.913Z,0
2017-04-23T01:46:39.935Z,0
2017-04-23T01:47:50.948Z,0
2017-04-23T01:49:02.026Z,0
2017-04-23T01:50:13.250Z,0
2017-04-23T01:51:24.271Z,0
2017-04-23T01:52:35.300Z,0
2017-04-23T01:53:46.529Z,0
2017-04-23T01:54:57.759Z,0
2017-04-23T01:56:08.984Z,0
2017-04-23T01:57:20.217Z,0
2017-04-23T01:58:31.248Z,0
2017-04-23T01:59:42.283Z,0
2017-04-23T02:00:53.316Z,0
2017-04-23T02:02:04.332Z,0
2017-04-23T02:03:15.356Z,0
2017-04-23T02:04:26.577Z,0
2017-04-23T02:05:37.598Z,0
2017-04-23T02:06:48.613Z,0
2017-04-23T02:07:59.630Z,0
2017-04-23T02:09:10.865Z,0
2017-04-23T02:10:21.943Z,0
2017-04-23T02:11:32.973Z,0
2017-04-23T02:12:44.395Z,0
2017-04-23T02:13:55.427Z,0
2017-04-23T02:15:06.467Z,0
2017-04-23T02:16:17.501Z,0
2017-04-23T02:17:28.522Z,0
2017-04-23T02:18:39.740Z,0
2017-04-23T02:19:50.761Z,0
2017-04-23T02:21:01.840Z,0
2017-04-23T02:22:12.858Z,0
2017-04-23T02:23:23.906Z,0
2017-04-23T02:24:34.940Z,0
2017-04-23T02:25:45.964Z,0
2017-04-23T02:26:56.984Z,0
2017-04-23T02:28:08.012Z,0
2017-04-23T02:29:19.049Z,0
2017-04-23T02:30:30.078Z,0
2017-04-23T02:31:41.158Z,0
2017-04-23T02:32:52.195Z,0
2017-04-23T02:34:03.210Z,0
2017-04-23T02:35:14.237Z,0
2017-04-23T02:36:25.244Z,0
2017-04-23T02:37:36.267Z,0
2017-04-23T02:38:47.290Z,0
2017-04-23T02:39:58.537Z,0
2017-04-23T02:41:09.760Z,0
2017-04-23T02:42:21.234Z,0
2017-04-23T02:43:32.250Z,0
2017-04-23T02:44:43.465Z,0
2017-04-23T02:45:54.493Z,0
2017-04-23T02:47:05.518Z,0
2017-04-23T02:48:16.541Z,0
2017-04-23T02:49:27.769Z,0
2017-04-23T02:50:38.789Z,0
2017-04-23T02:51:49.809Z,0
2017-04-23T02:53:00.888Z,0
2017-04-23T02:54:12.104Z,0
2017-04-23T02:55:23.139Z,0
2017-04-23T02:56:34.364Z,0
2017-04-23T02:57:45.388Z,0
2017-04-23T02:58:56.413Z,0
2017-04-23T03:00:07.634Z,0
2017-04-23T03:01:18.661Z,0
2017-04-23T03:02:29.688Z,0
2017-04-23T03:03:40.765Z,0
2017-04-23T03:04:51.793Z,0
2017-04-23T03:06:02.815Z,0
2017-04-23T03:07:13.838Z,0
2017-04-23T03:08:24.861Z,0
2017-04-23T03:09:36.093Z,0
2017-04-23T03:10:47.129Z,0
2017-04-23T03:11:58.353Z,0
2017-04-23T03:13:09.403Z,0
2017-04-23T03:14:20.421Z,0
2017-04-23T03:15:31.441Z,0
2017-04-23T03:16:42.937Z,0
2017-04-23T03:17:53.962Z,0
2017-04-23T03:19:04.993Z,0
2017-04-23T03:20:16.017Z,0
2017-04-23T03:21:27.055Z,0
2017-04-23T03:22:38.084Z,0
2017-04-23T03:23:49.103Z,0
2017-04-23T03:25:00.179Z,0
2017-04-23T03:26:11.205Z,0
2017-04-23T03:27:22.241Z,0
2017-04-23T03:28:33.274Z,0
2017-04-23T03:29:44.295Z,0
2017-04-23T03:30:55.326Z,0
2017-04-23T03:32:06.362Z,0
2017-04-23T03:33:17.396Z,0
2017-04-23T03:34:28.633Z,0
2017-04-23T03:35:39.669Z,0
2017-04-23T03:36:50.700Z,0
2017-04-23T03:38:01.730Z,0
2017-04-23T03:39:12.751Z,0
2017-04-23T03:40:23.823Z,0
2017-04-23T03:41:34.843Z,0
2017-04-23T03:42:45.874Z,0
2017-04-23T03:43:56.885Z,0
2017-04-23T03:45:07.909Z,0
2017-04-23T03:46:18.945Z,0
2017-04-23T03:47:29.968Z,0
2017-04-23T03:48:40.984Z,0
2017-04-23T03:49:52.027Z,0
2017-04-23T03:51:03.100Z,0
2017-04-23T03:52:14.128Z,0
2017-04-23T03:53:25.353Z,0
2017-04-23T03:54:36.573Z,0
2017-04-23T03:55:47.798Z,0
2017-04-23T03:56:58.874Z,0
2017-04-23T03:58:09.888Z,0
2017-04-23T03:59:20.907Z,0
2017-04-23T04:00:32.125Z,0
2017-04-23T04:01:43.149Z,0
2017-04-23T04:02:54.178Z,0
2017-04-23T04:04:05.415Z,0
2017-04-23T04:05:16.434Z,0
2017-04-23T04:06:27.452Z,0
2017-04-23T04:07:38.528Z,5
2017-04-23T04:08:49.782Z,5
2017-04-23T04:10:00.815Z,5
2017-04-23T04:11:11.834Z,5
2017-04-23T04:12:22.853Z,5
2017-04-23T04:13:33.881Z,5
2017-04-23T04:14:44.920Z,10
2017-04-23T04:15:55.932Z,10
2017-04-23T04:17:06.948Z,10
2017-04-23T04:18:18.024Z,10
2017-04-23T04:19:29.051Z,15
2017-04-23T04:20:40.069Z,15
2017-04-23T04:21:51.090Z,15
2017-04-23T04:23:02.109Z,20
2017-04-23T04:24:13.127Z,20
2017-04-23T04:25:24.152Z,25
2017-04-23T04:26:35.191Z,25
2017-04-23T04:27:46.443Z,25
2017-04-23T04:28:57.521Z,25
2017-04-23T04:30:08.531Z,25
2017-04-23T04:31:19.754Z,30
2017-04-23T04:32:30.977Z,35
2017-04-23T04:33:42.014Z,35
2017-04-23T04:34:53.094Z,40
2017-04-23T04:36:04.105Z,40
2017-04-23T04:37:15.122Z,50
2017-04-23T04:38:26.144Z,55
2017-04-23T04:39:37.370Z,60
2017-04-23T04:40:48.588Z,60
2017-04-23T04:41:59.613Z,65
2017-04-23T04:43:10.627Z,65
2017-04-23T04:44:22.065Z,65
2017-04-23T04:45:33.133Z,65
2017-04-23T04:46:44.150Z,60
2017-04-23T04:47:55.381Z,60
2017-04-23T04:49:06.402Z,65
2017-04-23T04:50:17.428Z,65
2017-04-23T04:51:29.045Z,75
2017-04-23T04:52:40.071Z,70
2017-04-23T04:53:51.101Z,70
2017-04-23T04:55:02.518Z,65
2017-04-23T04:56:13.793Z,65
2017-04-23T04:57:25.219Z,65
2017-04-23T04:58:36.241Z,65
2017-04-23T04:59:47.259Z,75
2017-04-23T05:00:58.283Z,80
2017-04-23T05:02:09.317Z,80
2017-04-23T05:03:20.347Z,85
2017-04-23T05:04:31.362Z,95
2017-04-23T05:05:42.401Z,100
2017-04-23T05:06:53.477Z,105
2017-04-23T05:08:04.709Z,115
2017-04-23T05:09:15.728Z,125
2017-04-23T05:10:26.744Z,140
2017-04-23T05:11:37.973Z,145
2017-04-23T05:12:49.030Z,150
2017-04-23T05:14:00.054Z,155
2017-04-23T05:15:11.085Z,175
2017-04-23T05:16:22.114Z,195
2017-04-23T05:17:33.139Z,210
2017-04-23T05:18:44.172Z,220
2017-04-23T05:19:55.210Z,230
2017-04-23T05:21:06.249Z,230
2017-04-23T05:22:17.265Z,245
2017-04-23T05:23:28.480Z,245
2017-04-23T05:24:39.714Z,240
2017-04-23T05:25:50.735Z,235
2017-04-23T05:27:01.961Z,195
2017-04-23T05:28:13.036Z,190
2017-04-23T05:29:24.060Z,195
2017-04-23T05:30:35.084Z,185
2017-04-23T05:31:46.112Z,175
2017-04-23T05:32:57.147Z,165
2017-04-23T05:34:08.367Z,160
2017-04-23T05:35:19.377Z,155
2017-04-23T05:36:30.400Z,165
2017-04-23T05:37:41.425Z,190
2017-04-23T05:38:52.511Z,205
2017-04-23T05:40:03.542Z,200
2017-04-23T05:41:14.579Z,220
2017-04-23T05:42:25.602Z,240
2017-04-23T05:43:36.831Z,220
2017-04-23T05:44:47.868Z,265
2017-04-23T05:45:59.105Z,280
2017-04-23T05:47:10.129Z,255
2017-04-23T05:48:21.160Z,255
2017-04-23T05:49:32.636Z,255
2017-04-23T05:50:43.666Z,255
2017-04-23T05:51:54.693Z,250
2017-04-23T05:53:05.708Z,270
2017-04-23T05:54:17.143Z,290
2017-04-23T05:55:28.170Z,295
2017-04-23T05:56:39.202Z,295
2017-04-23T05:57:50.236Z,295
2017-04-23T05:59:01.464Z,325
2017-04-23T06:00:12.496Z,330
2017-04-23T06:01:23.523Z,335
2017-04-23T06:02:34.560Z,375
2017-04-23T06:03:45.585Z,420
2017-04-23T06:04:56.609Z,620
2017-04-23T06:06:07.637Z,500
2017-04-23T06:07:18.662Z,420
2017-04-23T06:08:29.695Z,415
2017-04-23T06:09:40.728Z,890
2017-04-23T06:10:51.804Z,650
2017-04-23T06:12:02.837Z,830
2017-04-23T06:13:13.867Z,590
2017-04-23T06:14:25.103Z,570
2017-04-23T06:15:36.125Z,620
2017-04-23T06:16:47.142Z,645
2017-04-23T06:17:58.173Z,875
2017-04-23T06:19:09.197Z,1290
2017-04-23T06:20:20.426Z,1325
2017-04-23T06:21:31.502Z,1405
2017-04-23T06:22:42.521Z,530
2017-04-23T06:23:53.559Z,500
2017-04-23T06:25:04.582Z,485
2017-04-23T06:26:15.814Z,500
2017-04-23T06:27:26.840Z,510
2017-04-23T06:28:37.872Z,565
2017-04-23T06:29:49.109Z,995
2017-04-23T06:31:00.136Z,735
2017-04-23T06:32:11.218Z,750
2017-04-23T06:33:22.249Z,895
2017-04-23T06:34:33.273Z,515
2017-04-23T06:35:44.318Z,490
2017-04-23T06:36:55.345Z,435
2017-04-23T06:38:06.450Z,470
2017-04-23T06:39:17.476Z,850
2017-04-23T06:40:28.505Z,2155
2017-04-23T06:41:39.723Z,1910
2017-04-23T06:42:50.756Z,2215
2017-04-23T06:44:01.778Z,2045
2017-04-23T06:45:12.818Z,2255
2017-04-23T06:46:23.850Z,2315
2017-04-23T06:47:35.287Z,2295
2017-04-23T06:48:46.390Z,2405
2017-04-23T06:49:57.623Z,2035
2017-04-23T06:51:09.258Z,800
2017-04-23T06:52:20.277Z,620
2017-04-23T06:53:31.509Z,505
2017-04-23T06:54:42.543Z,465
2017-04-23T06:55:53.570Z,405
2017-04-23T06:57:04.595Z,365
2017-04-23T06:58:15.625Z,345
2017-04-23T06:59:26.703Z,320
2017-04-23T07:00:37.940Z,305
2017-04-23T07:01:49.172Z,310
2017-04-23T07:03:00.206Z,295
2017-04-23T07:04:11.242Z,290
2017-04-23T07:05:22.474Z,300
2017-04-23T07:06:33.505Z,320
2017-04-23T07:07:44.532Z,345
2017-04-23T07:08:55.574Z,410
2017-04-23T07:10:06.854Z,465
2017-04-23T07:11:17.879Z,545
2017-04-23T07:12:28.899Z,565
2017-04-23T07:13:39.930Z,585
2017-04-23T07:14:50.963Z,585
2017-04-23T07:16:01.986Z,635
2017-04-23T07:17:13.006Z,635
2017-04-23T07:18:24.049Z,770
2017-04-23T07:19:35.084Z,715
2017-04-23T07:20:46.176Z,785
2017-04-23T07:21:57.201Z,615
2017-04-23T07:23:08.229Z,490
2017-04-23T07:24:19.260Z,450
2017-04-23T07:25:30.296Z,475
2017-04-23T07:26:41.328Z,425
2017-04-23T07:27:52.355Z,430
2017-04-23T07:29:03.391Z,435
2017-04-23T07:30:14.416Z,425
2017-04-23T07:31:25.487Z,450
2017-04-23T07:32:36.513Z,515
2017-04-23T07:33:47.549Z,615
2017-04-23T07:34:58.781Z,1495
2017-04-23T07:36:09.821Z,1435
2017-04-23T07:37:20.852Z,1105
2017-04-23T07:38:31.874Z,1980
2017-04-23T07:39:43.305Z,2235
2017-04-23T07:40:54.535Z,1845
2017-04-23T07:42:05.613Z,2530
2017-04-23T07:43:16.645Z,2760
2017-04-23T07:44:27.682Z,2770
2017-04-23T07:45:39.124Z,2610
2017-04-23T07:46:50.165Z,2540
2017-04-23T07:48:01.208Z,2740
2017-04-23T07:49:12.246Z,1960
2017-04-23T07:50:23.284Z,1020
2017-04-23T07:51:34.301Z,1350
2017-04-23T07:52:45.419Z,1285
2017-04-23T07:53:56.457Z,1315
2017-04-23T07:55:07.505Z,1045
2017-04-23T07:56:18.528Z,950
2017-04-23T07:57:29.766Z,845
2017-04-23T07:58:40.809Z,890
2017-04-23T07:59:52.044Z,790
2017-04-23T08:01:03.078Z,1060
2017-04-23T08:02:14.316Z,1455
2017-04-23T08:03:25.617Z,1510
2017-04-23T08:04:36.649Z,945
2017-04-23T08:05:47.688Z,1535
2017-04-23T08:06:58.724Z,1195
2017-04-23T08:08:09.756Z,855
2017-04-23T08:09:20.811Z,1525
2017-04-23T08:10:32.253Z,780
2017-04-23T08:11:43.306Z,725
2017-04-23T08:12:54.553Z,680
2017-04-23T08:14:05.635Z,635
2017-04-23T08:15:16.934Z,590
2017-04-23T08:16:27.960Z,575
2017-04-23T08:17:39.008Z,560
2017-04-23T08:18:50.063Z,540
2017-04-23T08:20:01.107Z,505
2017-04-23T08:21:12.145Z,480
2017-04-23T08:22:23.179Z,445
2017-04-23T08:23:34.209Z,390
2017-04-23T08:24:45.278Z,385
2017-04-23T08:25:56.510Z,420
2017-04-23T08:27:07.741Z,430
2017-04-23T08:28:18.775Z,455
2017-04-23T08:29:29.814Z,430
2017-04-23T08:30:40.838Z,415
2017-04-23T08:31:52.064Z,425
2017-04-23T08:33:03.089Z,475
2017-04-23T08:34:14.115Z,805
2017-04-23T08:35:25.194Z,2435
2017-04-23T08:36:36.220Z,1925
2017-04-23T08:37:47.257Z,2590
2017-04-23T08:38:58.285Z,2810
2017-04-23T08:40:09.313Z,3190
2017-04-23T08:41:20.398Z,2440
2017-04-23T08:42:31.427Z,1205
2017-04-23T08:43:42.663Z,1285
2017-04-23T08:44:53.702Z,1470
2017-04-23T08:46:04.790Z,1035
2017-04-23T08:47:16.035Z,1080
2017-04-23T08:48:27.095Z,1290
2017-04-23T08:49:38.127Z,1050
2017-04-23T08:50:49.364Z,850
2017-04-23T08:52:00.403Z,920
2017-04-23T08:53:11.438Z,2515
2017-04-23T08:54:22.466Z,580
2017-04-23T08:55:33.501Z,485
2017-04-23T08:56:44.786Z,505
2017-04-23T08:57:55.826Z,460
2017-04-23T08:59:06.865Z,485
2017-04-23T09:00:18.103Z,575
2017-04-23T09:01:29.133Z,505
2017-04-23T09:02:40.375Z,840
2017-04-23T09:03:51.404Z,1990
2017-04-23T09:05:02.442Z,2575
2017-04-23T09:06:13.464Z,2200
2017-04-23T09:07:24.555Z,3055
2017-04-23T09:08:35.787Z,1005
2017-04-23T09:09:47.018Z,985
2017-04-23T09:10:58.054Z,730
2017-04-23T09:12:09.096Z,645
2017-04-23T09:13:20.125Z,2690
2017-04-23T09:14:31.172Z,1610
2017-04-23T09:15:42.227Z,1225
2017-04-23T09:16:53.265Z,780
2017-04-23T09:18:04.362Z,650
2017-04-23T09:19:15.591Z,545
2017-04-23T09:20:26.847Z,420
2017-04-23T09:21:37.872Z,570
2017-04-23T09:22:48.912Z,830
2017-04-23T09:24:00.195Z,595
2017-04-23T09:25:11.224Z,485
2017-04-23T09:26:22.250Z,370
2017-04-23T09:27:33.291Z,405
2017-04-23T09:28:44.329Z,400
2017-04-23T09:29:55.555Z,350
2017-04-23T09:31:06.601Z,360
2017-04-23T09:32:17.624Z,390
2017-04-23T09:33:28.664Z,420
2017-04-23T09:34:39.760Z,435
2017-04-23T09:35:50.790Z,490
2017-04-23T09:37:01.814Z,630
2017-04-23T09:38:13.046Z,460
2017-04-23T09:39:24.118Z,395
2017-04-23T09:40:35.151Z,355
2017-04-23T09:41:46.180Z,320
2017-04-23T09:42:57.220Z,330
2017-04-23T09:44:08.245Z,275
2017-04-23T09:45:19.292Z,230
2017-04-23T09:46:30.324Z,200
2017-04-23T09:47:41.347Z,185
2017-04-23T09:48:52.370Z,175
2017-04-23T09:50:03.454Z,185
2017-04-23T09:51:14.484Z,200
2017-04-23T09:52:25.518Z,230
2017-04-23T09:53:36.946Z,240
2017-04-23T09:54:47.969Z,260
2017-04-23T09:55:59.006Z,505
2017-04-23T09:57:10.046Z,555
2017-04-23T09:58:21.288Z,595
2017-04-23T09:59:32.329Z,640
2017-04-23T10:00:43.407Z,725
2017-04-23T10:01:54.640Z,480
2017-04-23T10:03:05.662Z,375
2017-04-23T10:04:16.889Z,310
2017-04-23T10:05:28.109Z,280
2017-04-23T10:06:39.343Z,265
2017-04-23T10:07:50.367Z,290
2017-04-23T10:09:01.399Z,330
2017-04-23T10:10:12.431Z,345
2017-04-23T10:11:23.655Z,365
2017-04-23T10:12:34.682Z,415
2017-04-23T10:13:45.994Z,535
2017-04-23T10:14:57.029Z,605
2017-04-23T10:16:08.064Z,530
2017-04-23T10:17:19.150Z,455
2017-04-23T10:18:30.199Z,385
2017-04-23T10:19:41.250Z,315
2017-04-23T10:20:52.289Z,310
2017-04-23T10:22:03.307Z,325
2017-04-23T10:23:14.331Z,300
2017-04-23T10:24:25.367Z,280
2017-04-23T10:25:36.402Z,285
2017-04-23T10:26:47.467Z,280
2017-04-23T10:27:58.551Z,240
2017-04-23T10:29:09.580Z,235
2017-04-23T10:30:20.665Z,260
2017-04-23T10:31:31.699Z,330
2017-04-23T10:32:42.745Z,470
2017-04-23T10:33:53.779Z,1375
2017-04-23T10:35:04.813Z,1075
2017-04-23T10:36:15.842Z,885
2017-04-23T10:37:26.865Z,1205
2017-04-23T10:38:38.567Z,1100
2017-04-23T10:39:49.815Z,1715
2017-04-23T10:41:00.843Z,1525
2017-04-23T10:42:12.086Z,1540
2017-04-23T10:43:23.133Z,1165
2017-04-23T10:44:34.219Z,1075
2017-04-23T10:45:45.250Z,1090
2017-04-23T10:46:56.281Z,965
2017-04-23T10:48:07.767Z,870
2017-04-23T10:49:18.810Z,1315
2017-04-23T10:50:29.844Z,1705
2017-04-23T10:51:40.876Z,1455
2017-04-23T10:52:51.910Z,2040
2017-04-23T10:54:03.142Z,1015
2017-04-23T10:55:14.228Z,2160
2017-04-23T10:56:25.268Z,905
2017-04-23T10:57:36.297Z,1360
2017-04-23T10:58:47.325Z,2355
2017-04-23T10:59:58.376Z,2055
2017-04-23T11:01:09.419Z,2310
2017-04-23T11:02:20.446Z,1910
2017-04-23T11:03:31.686Z,2255
2017-04-23T11:04:42.723Z,1250
2017-04-23T11:05:53.813Z,2525
2017-04-23T11:07:04.842Z,2645
2017-04-23T11:08:16.092Z,2610
2017-04-23T11:09:27.340Z,1555
2017-04-23T11:10:38.385Z,1130
2017-04-23T11:11:49.434Z,1110
2017-04-23T11:13:00.490Z,1065
2017-04-23T11:14:11.529Z,1105
2017-04-23T11:15:22.779Z,1130
2017-04-23T11:16:33.865Z,1180
2017-04-23T11:17:45.109Z,1245
2017-04-23T11:18:56.155Z,985
2017-04-23T11:20:07.600Z,1325
2017-04-23T11:21:18.642Z,1085
2017-04-23T11:22:29.680Z,1410
2017-04-23T11:23:40.729Z,1380
2017-04-23T11:24:51.963Z,1105
2017-04-23T11:26:03.004Z,1805
2017-04-23T11:27:14.250Z,1845
2017-04-23T11:28:25.292Z,1790
2017-04-23T11:29:36.537Z,1435
2017-04-23T11:30:47.578Z,765
2017-04-23T11:31:59.022Z,605
2017-04-23T11:33:10.073Z,540
2017-04-23T11:34:21.120Z,495
2017-04-23T11:35:32.156Z,465
2017-04-23T11:36:43.198Z,410
2017-04-23T11:37:54.286Z,390
2017-04-23T11:39:05.317Z,405
2017-04-23T11:40:16.366Z,390
2017-04-23T11:41:27.404Z,335
2017-04-23T11:42:38.456Z,285
2017-04-23T11:43:49.517Z,255
2017-04-23T11:45:00.741Z,245
2017-04-23T11:46:11.978Z,230
2017-04-23T11:47:23.212Z,200
2017-04-23T11:48:34.301Z,180
2017-04-23T11:49:45.540Z,165
2017-04-23T11:50:56.581Z,155
2017-04-23T11:52:07.814Z,155
2017-04-23T11:53:18.835Z,160
2017-04-23T11:54:29.865Z,170
2017-04-23T11:55:40.908Z,195
2017-04-23T11:56:51.944Z,225
2017-04-23T11:58:02.986Z,270
2017-04-23T11:59:14.069Z,325
2017-04-23T12:00:25.093Z,375
2017-04-23T12:01:36.137Z,365
2017-04-23T12:02:47.176Z,315
2017-04-23T12:03:58.199Z,265
2017-04-23T12:05:09.237Z,225
2017-04-23T12:06:20.274Z,185
2017-04-23T12:07:31.501Z,150
2017-04-23T12:08:42.532Z,130
2017-04-23T12:09:53.557Z,120
2017-04-23T12:11:04.590Z,115
2017-04-23T12:12:15.619Z,120
2017-04-23T12:13:26.664Z,120
2017-04-23T12:14:37.723Z,125
2017-04-23T12:15:49.001Z,135
2017-04-23T12:17:00.238Z,145
2017-04-23T12:18:11.299Z,155
2017-04-23T12:19:22.537Z,165
2017-04-23T12:20:33.566Z,165
2017-04-23T12:21:44.594Z,180
2017-04-23T12:22:55.813Z,190
2017-04-23T12:24:06.854Z,225
2017-04-23T12:25:18.087Z,280
2017-04-23T12:26:29.161Z,410
2017-04-23T12:27:40.432Z,1050
2017-04-23T12:28:51.485Z,510
2017-04-23T12:30:02.530Z,520
2017-04-23T12:31:13.560Z,535
2017-04-23T12:32:24.797Z,685
2017-04-23T12:33:35.824Z,640
2017-04-23T12:34:46.890Z,620
2017-04-23T12:35:58.021Z,595
2017-04-23T12:37:09.147Z,610
2017-04-23T12:38:20.356Z,670
2017-04-23T12:39:31.459Z,700
2017-04-23T12:40:42.644Z,695
2017-04-23T12:41:53.766Z,995
2017-04-23T12:43:04.987Z,680
2017-04-23T12:44:16.052Z,885
2017-04-23T12:45:27.187Z,735
2017-04-23T12:46:38.475Z,880
2017-04-23T12:47:49.567Z,840
2017-04-23T12:49:00.899Z,640
2017-04-23T12:50:12.197Z,580
2017-04-23T12:51:23.382Z,530
2017-04-23T12:52:34.757Z,405
2017-04-23T12:53:46.254Z,480
2017-04-23T12:54:57.503Z,470
2017-04-23T12:56:08.631Z,460
2017-04-23T12:57:19.994Z,685
2017-04-23T12:58:31.424Z,835
2017-04-23T12:59:42.537Z,555
2017-04-23T13:00:53.653Z,505
2017-04-23T13:02:04.798Z,520
2017-04-23T13:03:16.153Z,535
2017-04-23T13:04:27.524Z,505
2017-04-23T13:05:38.664Z,485
2017-04-23T13:06:49.773Z,475
2017-04-23T13:08:00.850Z,455
2017-04-23T13:09:12.114Z,420
2017-04-23T13:10:23.638Z,410
2017-04-23T13:11:34.772Z,425
2017-04-23T13:12:45.919Z,450
2017-04-23T13:13:57.307Z,545
2017-04-23T13:15:08.482Z,615
2017-04-23T13:16:19.776Z,570
2017-04-23T13:17:30.913Z,525
2017-04-23T13:18:42.280Z,485
2017-04-23T13:19:53.334Z,450
2017-04-23T13:21:04.428Z,430
2017-04-23T13:22:15.885Z,430
2017-04-23T13:23:27.262Z,420
2017-04-23T13:24:38.619Z,400
2017-04-23T13:25:50.213Z,380
2017-04-23T13:27:01.464Z,360
2017-04-23T13:28:12.560Z,345
2017-04-23T13:29:23.672Z,315
2017-04-23T13:30:34.940Z,285
2017-04-23T13:31:46.034Z,255
2017-04-23T13:32:57.536Z,250
2017-04-23T13:34:08.753Z,260
2017-04-23T13:35:19.917Z,260
2017-04-23T13:36:31.252Z,250
2017-04-23T13:37:42.633Z,235
2017-04-23T13:38:53.833Z,225
2017-04-23T13:40:05.169Z,215
2017-04-23T13:41:16.294Z,205
2017-04-23T13:42:27.520Z,190
2017-04-23T13:43:38.643Z,180
2017-04-23T13:44:50.065Z,175
2017-04-23T13:46:01.121Z,170
2017-04-23T13:47:12.457Z,165
2017-04-23T13:48:23.593Z,160
2017-04-23T13:49:34.667Z,160
2017-04-23T13:50:45.759Z,170
2017-04-23T13:51:56.892Z,200
2017-04-23T13:53:07.994Z,270
2017-04-23T13:54:19.342Z,335
2017-04-23T13:55:30.760Z,385
2017-04-23T13:56:41.974Z,405
2017-04-23T13:57:53.203Z,390
2017-04-23T13:59:04.312Z,385
2017-04-23T14:00:16.082Z,380
2017-04-23T14:01:27.256Z,380
2017-04-23T14:02:38.405Z,380
2017-04-23T14:03:49.894Z,410
2017-04-23T14:05:01.141Z,435
2017-04-23T14:06:12.398Z,460
2017-04-23T14:07:23.878Z,455
2017-04-23T14:08:35.023Z,590
2017-04-23T14:09:46.382Z,430
2017-04-23T14:10:57.974Z,405
2017-04-23T14:12:10.353Z,390
2017-04-23T14:13:22.908Z,365
2017-04-23T14:14:34.967Z,340
2017-04-23T14:15:47.328Z,335
2017-04-23T14:16:59.704Z,325
2017-04-23T14:18:12.285Z,310
2017-04-23T14:19:24.135Z,285
2017-04-23T14:20:36.391Z,270
2017-04-23T14:21:48.008Z,290
2017-04-23T14:22:59.336Z,405
2017-04-23T14:24:10.517Z,640
2017-04-23T14:25:21.666Z,650
2017-04-23T14:26:32.848Z,390
2017-04-23T14:27:44.028Z,380
2017-04-23T14:28:55.341Z,395
2017-04-23T14:30:06.476Z,330
2017-04-23T14:31:17.563Z,410
2017-04-23T14:32:28.675Z,405
2017-04-23T14:33:39.772Z,385
2017-04-23T14:34:50.869Z,345
2017-04-23T14:36:02.026Z,340
2017-04-23T14:37:13.120Z,350
2017-04-23T14:38:24.224Z,355
2017-04-23T14:39:35.325Z,365
2017-04-23T14:40:46.429Z,350
2017-04-23T14:41:57.719Z,345
2017-04-23T14:43:08.810Z,360
2017-04-23T14:44:19.860Z,400
2017-04-23T14:45:30.942Z,390
2017-04-23T14:46:42.013Z,395
2017-04-23T14:47:53.114Z,390
2017-04-23T14:49:04.169Z,390
2017-04-23T14:50:15.210Z,385
2017-04-23T14:51:26.256Z,415
2017-04-23T14:52:37.513Z,420
2017-04-23T14:53:48.573Z,460
2017-04-23T14:54:59.628Z,435
2017-04-23T14:56:10.692Z,405
2017-04-23T14:57:21.784Z,405
2017-04-23T14:58:32.848Z,400
2017-04-23T14:59:43.901Z,320
2017-04-23T15:00:54.964Z,305
2017-04-23T15:02:06.241Z,295
2017-04-23T15:03:17.288Z,285
2017-04-23T15:04:28.347Z,275
2017-04-23T15:05:39.399Z,280
2017-04-23T15:06:50.665Z,295
2017-04-23T15:08:01.788Z,315
2017-04-23T15:09:12.825Z,335
2017-04-23T15:10:23.876Z,345
2017-04-23T15:11:34.927Z,415
2017-04-23T15:12:45.975Z,370
2017-04-23T15:13:57.053Z,385
2017-04-23T15:15:08.095Z,420
2017-04-23T15:16:19.138Z,365
2017-04-23T15:17:30.200Z,340
2017-04-23T15:18:41.512Z,340
2017-04-23T15:19:52.779Z,385
2017-04-23T15:21:03.830Z,380
2017-04-23T15:22:14.871Z,380
2017-04-23T15:23:25.929Z,345
2017-04-23T15:24:37.021Z,370
2017-04-23T15:25:48.060Z,360
2017-04-23T15:26:59.106Z,340
2017-04-23T15:28:10.148Z,335
2017-04-23T15:29:21.201Z,285
2017-04-23T15:30:32.245Z,240
2017-04-23T15:31:43.292Z,225
2017-04-23T15:32:54.575Z,215
2017-04-23T15:34:05.647Z,255
2017-04-23T15:35:16.668Z,235
2017-04-23T15:36:27.733Z,235
2017-04-23T15:37:38.964Z,235
2017-04-23T15:38:50.016Z,225
2017-04-23T15:40:01.064Z,230
2017-04-23T15:41:12.100Z,230
2017-04-23T15:42:23.151Z,240
2017-04-23T15:43:34.180Z,230
2017-04-23T15:44:45.219Z,215
2017-04-23T15:45:56.719Z,205
2017-04-23T15:47:07.753Z,200
2017-04-23T15:48:18.828Z,200
2017-04-23T15:49:30.068Z,210
2017-04-23T15:50:41.130Z,205
2017-04-23T15:51:52.181Z,195
2017-04-23T15:53:03.230Z,190
2017-04-23T15:54:14.279Z,175
2017-04-23T15:55:25.325Z,160
2017-04-23T15:56:36.417Z,145
2017-04-23T15:57:47.668Z,130
2017-04-23T15:58:58.710Z,125
2017-04-23T16:00:09.740Z,110
2017-04-23T16:01:20.790Z,100
2017-04-23T16:02:31.823Z,90
2017-04-23T16:03:43.062Z,80
2017-04-23T16:04:54.113Z,80
2017-04-23T16:06:05.163Z,75
2017-04-23T16:07:16.446Z,75
2017-04-23T16:08:27.690Z,70
2017-04-23T16:09:38.725Z,70
2017-04-23T16:10:49.791Z,70
2017-04-23T16:12:00.831Z,70
2017-04-23T16:13:12.269Z,70
2017-04-23T16:14:23.363Z,70
2017-04-23T16:15:34.379Z,75
2017-04-23T16:16:45.421Z,75
2017-04-23T16:17:56.648Z,80
2017-04-23T16:19:07.677Z,80
2017-04-23T16:20:18.703Z,90
2017-04-23T16:21:29.737Z,95
2017-04-23T16:22:40.983Z,105
2017-04-23T16:23:52.492Z,120
2017-04-23T16:25:03.725Z,130
2017-04-23T16:26:14.755Z,140
2017-04-23T16:27:25.981Z,135
2017-04-23T16:28:37.012Z,135
2017-04-23T16:29:48.063Z,130
2017-04-23T16:30:59.294Z,130
2017-04-23T16:32:10.333Z,135
2017-04-23T16:33:21.375Z,135
2017-04-23T16:34:32.459Z,140